createdAt,value
2023-04-22T00:01:14.074Z,8.63
2023-04-22T00:03:16.895Z,9.52
2023-04-22T00:05:20.715Z,8.93
2023-04-22T00:07:23.675Z,8.48
2023-04-22T00:09:27.676Z,10.38
2023-04-22T00:11:30.325Z,11.32
2023-04-22T00:13:33.059Z,10.93
2023-04-22T00:15:35.665Z,11.32
2023-04-22T00:17:38.497Z,10.00
2023-04-22T00:19:42.903Z,13.80
2023-04-22T00:21:45.588Z,9.98
2023-04-22T00:23:48.259Z,10.52
2023-04-22T00:25:52.252Z,12.23
2023-04-22T00:27:54.929Z,12.07
2023-04-22T00:29:57.577Z,15.65
2023-04-22T00:32:00.239Z,14.00
2023-04-22T00:34:03.056Z,12.65
2023-04-22T00:36:06.145Z,12.77
2023-04-22T00:38:08.858Z,14.30
2023-04-22T00:40:11.721Z,14.60
2023-04-22T00:42:17.365Z,11.00
2023-04-22T00:44:20.415Z,10.45
2023-04-22T00:46:23.058Z,10.10
2023-04-22T00:48:28.647Z,11.05
2023-04-22T00:50:31.697Z,9.07
2023-04-22T00:52:34.689Z,10.23
2023-04-22T00:54:37.616Z,10.15
2023-04-22T00:56:40.714Z,8.73
2023-04-22T00:58:45.330Z,10.82
2023-04-22T01:00:48.101Z,9.18
2023-04-22T01:02:51.506Z,10.32
2023-04-22T01:04:55.167Z,10.07
2023-04-22T01:06:58.736Z,9.95
2023-04-22T01:09:01.587Z,11.98
2023-04-22T01:11:04.224Z,11.63
2023-04-22T01:13:06.988Z,10.90
2023-04-22T01:15:12.205Z,12.23
2023-04-22T01:17:16.436Z,11.82
2023-04-22T01:19:19.371Z,11.80
2023-04-22T01:21:22.699Z,11.55
2023-04-22T01:23:26.972Z,12.07
2023-04-22T01:25:29.973Z,9.15
2023-04-22T01:27:32.861Z,10.85
2023-04-22T01:29:37.957Z,10.10
2023-04-22T01:31:40.930Z,10.90
2023-04-22T01:33:44.319Z,10.77
2023-04-22T01:35:47.289Z,10.65
2023-04-22T01:37:50.090Z,12.00
2023-04-22T01:39:54.419Z,13.00
2023-04-22T01:41:58.716Z,10.30
2023-04-22T01:44:03.594Z,11.30
2023-04-22T01:46:06.983Z,10.65
2023-04-22T01:48:11.082Z,10.80
2023-04-22T01:50:13.863Z,12.02
2023-04-22T01:52:16.973Z,10.20
2023-04-22T01:54:19.651Z,10.40
2023-04-22T01:56:23.652Z,14.20
2023-04-22T01:58:29.508Z,13.10
2023-04-22T02:00:32.548Z,12.55
2023-04-22T02:02:35.653Z,14.35
2023-04-22T02:04:38.447Z,11.23
2023-04-22T02:06:41.093Z,10.93
2023-04-22T02:08:43.921Z,12.02
2023-04-22T02:10:46.679Z,12.25
2023-04-22T02:12:50.764Z,11.88
2023-04-22T02:14:53.442Z,10.90
2023-04-22T02:16:56.242Z,11.65
2023-04-22T02:18:59.678Z,10.65
2023-04-22T02:21:02.462Z,12.13
2023-04-22T02:23:05.588Z,11.70
2023-04-22T02:25:10.811Z,11.80
2023-04-22T02:27:13.526Z,13.50
2023-04-22T02:29:17.579Z,12.18
2023-04-22T02:31:20.428Z,16.45
2023-04-22T02:33:23.195Z,11.05
2023-04-22T02:35:25.866Z,11.88
2023-04-22T02:37:28.482Z,11.77
2023-04-22T02:39:31.224Z,12.90
2023-04-22T02:41:33.929Z,12.27
2023-04-22T02:43:36.624Z,11.50
2023-04-22T02:45:40.948Z,16.55
2023-04-22T02:47:43.752Z,10.43
2023-04-22T02:49:46.573Z,12.52
2023-04-22T02:51:49.222Z,12.55
2023-04-22T02:53:52.053Z,10.38
2023-04-22T02:55:55.765Z,12.15
2023-04-22T02:57:58.468Z,11.85
2023-04-22T03:00:01.147Z,11.52
2023-04-22T03:02:06.934Z,13.07
2023-04-22T03:04:09.969Z,9.93
2023-04-22T03:06:12.719Z,11.75
2023-04-22T03:08:15.644Z,13.10
2023-04-22T03:10:18.439Z,10.90
2023-04-22T03:12:21.119Z,12.23
2023-04-22T03:14:23.904Z,11.60
2023-04-22T03:16:26.612Z,11.77
2023-04-22T03:18:30.639Z,10.57
2023-04-22T03:20:33.317Z,10.57
2023-04-22T03:22:35.951Z,12.35
2023-04-22T03:24:39.093Z,12.60
2023-04-22T03:26:41.880Z,11.55
2023-04-22T03:28:44.533Z,10.52
2023-04-22T03:30:47.347Z,9.85
2023-04-22T03:32:50.118Z,10.70
2023-04-22T03:34:54.354Z,12.80
2023-04-22T03:36:57.104Z,13.90
2023-04-22T03:38:59.866Z,10.77
2023-04-22T03:41:02.498Z,12.38
2023-04-22T03:43:05.295Z,10.88
2023-04-22T03:45:08.624Z,10.25
2023-04-22T03:47:11.287Z,11.73
2023-04-22T03:49:14.389Z,10.30
2023-04-22T03:51:18.374Z,11.18
2023-04-22T03:53:21.090Z,9.55
2023-04-22T03:55:23.795Z,10.35
2023-04-22T03:57:26.560Z,11.88
2023-04-22T03:59:29.222Z,10.52
2023-04-22T04:01:31.938Z,10.80
2023-04-22T04:03:34.826Z,9.73
2023-04-22T04:05:37.915Z,10.60
2023-04-22T04:07:42.571Z,12.13
2023-04-22T04:09:45.279Z,13.43
2023-04-22T04:11:47.884Z,10.93
2023-04-22T04:13:50.606Z,10.60
2023-04-22T04:15:53.626Z,12.23
2023-04-22T04:17:56.791Z,10.95
2023-04-22T04:19:59.735Z,9.57
2023-04-22T04:22:02.454Z,10.45
2023-04-22T04:24:07.410Z,10.95
2023-04-22T04:26:10.082Z,12.38
2023-04-22T04:28:13.772Z,11.75
2023-04-22T04:30:16.541Z,12.77
2023-04-22T04:32:19.251Z,13.57
2023-04-22T04:34:26.678Z,11.63
2023-04-22T04:36:32.876Z,12.13
2023-04-22T04:38:35.523Z,13.13
2023-04-22T04:40:39.589Z,11.70
2023-04-22T04:42:42.325Z,14.45
2023-04-22T04:44:45.004Z,13.55
2023-04-22T04:46:47.665Z,12.60
2023-04-22T04:48:51.644Z,14.30
2023-04-22T04:50:54.771Z,14.68
2023-04-22T04:52:57.385Z,12.13
2023-04-22T04:55:00.064Z,14.85
2023-04-22T04:57:04.385Z,12.48
2023-04-22T04:59:07.059Z,11.45
2023-04-22T05:01:09.764Z,12.57
2023-04-22T05:03:12.656Z,13.60
2023-04-22T05:05:15.606Z,11.88
2023-04-22T05:07:18.286Z,14.07
2023-04-22T05:09:20.919Z,10.98
2023-04-22T05:11:23.627Z,11.50
2023-04-22T05:13:27.703Z,11.13
2023-04-22T05:15:30.474Z,14.88
2023-04-22T05:17:33.231Z,10.35
2023-04-22T05:19:35.930Z,10.52
2023-04-22T05:21:38.612Z,10.95
2023-04-22T05:23:41.241Z,10.27
2023-04-22T05:25:44.072Z,7.82
2023-04-22T05:27:46.709Z,8.52
2023-04-22T05:29:50.726Z,9.40
2023-04-22T05:31:53.441Z,9.25
2023-04-22T05:33:56.159Z,8.52
2023-04-22T05:35:58.933Z,7.72
2023-04-22T05:38:01.743Z,7.45
2023-04-22T05:40:04.689Z,7.57
2023-04-22T05:42:07.392Z,7.88
2023-04-22T05:44:10.920Z,9.43
2023-04-22T05:46:15.093Z,8.23
2023-04-22T05:48:17.811Z,9.10
2023-04-22T05:50:21.299Z,7.88
2023-04-22T05:52:25.981Z,10.52
2023-04-22T05:54:29.695Z,10.20
2023-04-22T05:56:32.714Z,10.38
2023-04-22T05:58:35.542Z,9.18
2023-04-22T06:00:38.247Z,9.90
2023-04-22T06:02:42.457Z,9.27
2023-04-22T06:04:45.393Z,7.70
2023-04-22T06:06:48.436Z,8.00
2023-04-22T06:08:51.121Z,7.85
2023-04-22T06:10:53.824Z,7.05
2023-04-22T06:12:56.530Z,7.35
2023-04-22T06:14:59.147Z,7.07
2023-04-22T06:17:01.844Z,6.60
2023-04-22T06:19:06.010Z,6.07
2023-04-22T06:21:08.628Z,7.07
2023-04-22T06:23:11.294Z,7.10
2023-04-22T06:25:13.941Z,6.78
2023-04-22T06:27:16.590Z,7.10
2023-04-22T06:29:19.216Z,7.32
2023-04-22T06:31:21.920Z,8.35
2023-04-22T06:33:24.647Z,6.20
2023-04-22T06:35:28.714Z,8.80
2023-04-22T06:37:31.418Z,9.07
2023-04-22T06:39:34.122Z,8.20
2023-04-22T06:41:36.812Z,8.00
2023-04-22T06:43:39.432Z,7.63
2023-04-22T06:45:42.887Z,6.60
2023-04-22T06:47:45.583Z,7.18
2023-04-22T06:49:48.273Z,7.70
2023-04-22T06:51:52.233Z,7.65
2023-04-22T06:53:54.891Z,6.30
2023-04-22T06:55:57.551Z,8.20
2023-04-22T06:58:00.196Z,6.72
2023-04-22T07:00:04.193Z,7.22
2023-04-22T07:02:07.042Z,6.18
2023-04-22T07:04:09.867Z,6.82
2023-04-22T07:06:12.935Z,7.40
2023-04-22T07:08:17.001Z,8.55
2023-04-22T07:10:19.829Z,6.57
2023-04-22T07:12:24.056Z,7.70
2023-04-22T07:14:27.334Z,7.18
2023-04-22T07:16:30.019Z,6.20
2023-04-22T07:18:32.684Z,7.15
2023-04-22T07:20:35.333Z,6.75
2023-04-22T07:22:37.936Z,6.38
2023-04-22T07:24:41.958Z,6.53
2023-04-22T07:26:45.579Z,7.10
2023-04-22T07:28:48.228Z,6.75
2023-04-22T07:30:50.946Z,5.50
2023-04-22T07:32:53.617Z,6.32
2023-04-22T07:34:56.436Z,6.40
2023-04-22T07:36:59.293Z,6.28
2023-04-22T07:39:02.043Z,6.88
2023-04-22T07:41:06.263Z,4.88
2023-04-22T07:43:08.868Z,5.32
2023-04-22T07:45:11.808Z,5.22
2023-04-22T07:47:14.526Z,6.00
2023-04-22T07:49:17.662Z,5.38
2023-04-22T07:51:20.339Z,4.57
2023-04-22T07:53:23.245Z,6.10
2023-04-22T07:55:26.076Z,5.88
2023-04-22T07:57:30.100Z,5.97
2023-04-22T07:59:32.760Z,9.65
2023-04-22T08:01:35.441Z,6.13
2023-04-22T08:03:38.234Z,5.72
2023-04-22T08:05:41.178Z,7.15
2023-04-22T08:07:43.918Z,6.40
2023-04-22T08:09:46.607Z,6.22
2023-04-22T08:11:49.397Z,8.43
2023-04-22T08:13:53.442Z,7.63
2023-04-22T08:15:56.184Z,8.00
2023-04-22T08:17:58.990Z,5.30
2023-04-22T08:20:01.702Z,6.93
2023-04-22T08:22:04.318Z,7.68
2023-04-22T08:24:07.534Z,5.60
2023-04-22T08:26:14.890Z,7.28
2023-04-22T08:28:17.612Z,6.32
2023-04-22T08:30:21.759Z,5.25
2023-04-22T08:32:26.429Z,4.70
2023-04-22T08:34:29.270Z,6.63
2023-04-22T08:36:32.266Z,7.63
2023-04-22T08:38:35.013Z,4.63
2023-04-22T08:40:41.472Z,5.35
2023-04-22T08:44:47.982Z,3.85
2023-04-22T08:46:52.656Z,4.18
2023-04-22T08:48:55.739Z,4.63
2023-04-22T08:50:59.249Z,4.32
2023-04-22T08:53:02.041Z,4.22
2023-04-22T08:55:05.070Z,3.65
2023-04-22T08:57:09.477Z,5.05
2023-04-22T08:59:13.390Z,4.78
2023-04-22T09:01:17.913Z,4.28
2023-04-22T09:03:23.273Z,4.55
2023-04-22T09:05:28.409Z,4.10
2023-04-22T09:07:32.040Z,4.55
2023-04-22T09:09:35.318Z,4.43
2023-04-22T09:11:38.729Z,3.95
2023-04-22T09:13:41.512Z,4.85
2023-04-22T09:15:44.636Z,4.80
2023-04-22T09:17:47.418Z,4.22
2023-04-22T09:19:59.189Z,6.03
2023-04-22T09:22:02.518Z,3.42
2023-04-22T09:24:08.561Z,3.53
2023-04-22T09:26:12.148Z,5.25
2023-04-22T09:28:19.473Z,4.93
2023-04-22T09:30:25.970Z,4.07
2023-04-22T09:32:28.741Z,3.40
2023-04-22T09:34:31.938Z,3.75
2023-04-22T09:36:37.474Z,3.90
2023-04-22T09:38:40.505Z,4.20
2023-04-22T09:40:45.010Z,4.32
2023-04-22T09:42:51.450Z,5.55
2023-04-22T09:44:54.148Z,3.78
2023-04-22T09:46:56.880Z,3.92
2023-04-22T09:49:00.623Z,3.90
2023-04-22T09:51:03.326Z,4.55
2023-04-22T09:53:09.710Z,3.80
2023-04-22T09:55:12.520Z,4.22
2023-04-22T09:57:17.102Z,4.75
2023-04-22T09:59:24.211Z,3.75
2023-04-22T10:01:36.608Z,4.90
2023-04-22T10:03:39.552Z,4.38
2023-04-22T10:05:42.668Z,5.68
2023-04-22T10:07:46.252Z,3.70
2023-04-22T10:09:50.722Z,4.15
2023-04-22T10:11:56.683Z,3.63
2023-04-22T10:14:00.822Z,7.15
2023-04-22T10:16:04.169Z,4.88
2023-04-22T10:18:11.092Z,4.38
2023-04-22T10:20:18.232Z,6.07
2023-04-22T10:22:20.990Z,4.38
2023-04-22T10:24:27.241Z,4.03
2023-04-22T10:26:42.551Z,4.63
2023-04-22T10:28:45.456Z,4.97
2023-04-22T10:30:48.338Z,4.03
2023-04-22T10:32:51.080Z,4.85
2023-04-22T10:35:09.970Z,5.88
2023-04-22T10:37:14.197Z,4.13
2023-04-22T10:39:18.374Z,4.40
2023-04-22T10:41:24.454Z,4.35
2023-04-22T10:43:45.568Z,5.57
2023-04-22T10:45:48.295Z,4.03
2023-04-22T10:47:51.232Z,4.55
2023-04-22T10:50:10.033Z,5.93
2023-04-22T10:52:28.609Z,4.43
2023-04-22T10:55:03.061Z,4.72
2023-04-22T10:57:07.446Z,4.75
2023-04-22T10:59:17.988Z,5.25
2023-04-22T11:01:20.679Z,4.00
2023-04-22T11:03:28.947Z,4.05
2023-04-22T11:05:32.897Z,3.72
2023-04-22T11:07:36.452Z,3.60
2023-04-22T11:09:41.022Z,4.05
2023-04-22T11:11:44.001Z,4.20
2023-04-22T11:13:50.323Z,3.70
2023-04-22T11:15:56.468Z,4.43
2023-04-22T11:17:59.650Z,4.10
2023-04-22T11:20:04.659Z,3.83
2023-04-22T11:22:07.437Z,4.10
2023-04-22T11:24:11.116Z,4.30
2023-04-22T11:26:13.838Z,4.25
2023-04-22T11:28:16.485Z,4.80
2023-04-22T11:30:20.753Z,3.65
2023-04-22T11:32:24.938Z,3.40
2023-04-22T11:34:27.599Z,3.53
2023-04-22T11:36:31.503Z,3.80
2023-04-22T11:38:34.235Z,6.00
2023-04-22T11:40:40.660Z,3.47
2023-04-22T11:42:45.076Z,4.70
2023-04-22T11:44:47.825Z,4.38
2023-04-22T11:46:51.023Z,3.30
2023-04-22T11:48:55.028Z,4.18
2023-04-22T11:51:11.846Z,4.15
2023-04-22T11:53:16.368Z,3.88
2023-04-22T11:55:22.291Z,3.67
2023-04-22T11:57:26.621Z,3.80
2023-04-22T11:59:29.770Z,5.00
2023-04-22T12:01:32.869Z,5.90
2023-04-22T12:03:35.961Z,3.38
2023-04-22T12:05:41.820Z,9.15
2023-04-22T12:07:44.526Z,1999.90
2023-04-22T12:09:47.706Z,1352.40
2023-04-22T12:11:52.721Z,606.35
2023-04-22T12:13:55.599Z,1551.30
2023-04-22T12:15:59.909Z,1999.90
2023-04-22T12:18:03.017Z,1578.50
2023-04-22T12:20:07.712Z,1154.65
2023-04-22T12:22:11.688Z,1597.80
2023-04-22T12:24:15.035Z,1774.93
2023-04-22T12:26:19.026Z,1677.93
2023-04-22T12:28:22.275Z,1594.85
2023-04-22T12:30:25.389Z,1629.13
2023-04-22T12:32:28.464Z,1362.25
2023-04-22T12:34:31.074Z,1885.75
2023-04-22T12:36:33.770Z,1266.97
2023-04-22T12:38:38.389Z,1080.60
2023-04-22T12:40:41.058Z,1034.00
2023-04-22T12:42:43.729Z,1813.40
2023-04-22T12:44:46.878Z,1999.90
2023-04-22T12:46:49.608Z,1868.03
2023-04-22T12:48:52.296Z,1551.60
2023-04-22T12:50:55.153Z,1411.50
2023-04-22T12:52:57.785Z,1549.05
2023-04-22T12:55:01.781Z,1529.10
2023-04-22T12:57:04.653Z,1163.05
2023-04-22T12:59:07.288Z,1154.85
2023-04-22T13:01:09.877Z,1530.15
2023-04-22T13:03:12.764Z,1450.10
2023-04-22T13:05:16.907Z,176.82
2023-04-22T13:07:20.259Z,1759.88
2023-04-22T13:09:25.494Z,1128.85
2023-04-22T13:11:29.601Z,740.92
2023-04-22T13:13:32.359Z,380.20
2023-04-22T13:15:35.426Z,356.98
2023-04-22T13:17:38.951Z,844.00
2023-04-22T13:19:41.816Z,1286.68
2023-04-22T13:21:45.127Z,1191.65
2023-04-22T13:23:48.075Z,992.15
2023-04-22T13:25:50.949Z,923.38
2023-04-22T13:27:54.910Z,580.15
2023-04-22T13:29:58.272Z,1471.57
2023-04-22T13:32:01.075Z,1908.70
2023-04-22T13:34:03.753Z,534.47
2023-04-22T13:36:06.649Z,505.02
2023-04-22T13:38:09.495Z,701.38
2023-04-22T13:40:12.668Z,341.27
2023-04-22T13:42:15.493Z,1201.45
2023-04-22T13:44:19.604Z,660.05
2023-04-22T13:46:22.342Z,777.17
2023-04-22T13:48:25.198Z,1349.60
2023-04-22T13:50:27.929Z,1502.45
2023-04-22T13:52:30.608Z,1301.25
2023-04-22T13:54:33.286Z,1174.10
2023-04-22T13:56:36.029Z,1251.63
2023-04-22T13:58:40.302Z,1342.95
2023-04-22T14:00:44.371Z,7.75
2023-04-22T14:02:47.331Z,4.03
2023-04-22T14:04:50.036Z,70.88
2023-04-22T14:06:52.684Z,346.60
2023-04-22T14:08:55.424Z,1678.75
2023-04-22T14:10:59.350Z,33.83
2023-04-22T14:13:02.071Z,12.50
2023-04-22T14:15:06.403Z,4.30
2023-04-22T14:17:10.703Z,4.25
2023-04-22T14:19:14.198Z,4.18
2023-04-22T14:21:16.945Z,5.65
2023-04-22T14:23:19.799Z,5.57
2023-04-22T14:25:22.551Z,6.38
2023-04-22T14:27:25.240Z,3.97
2023-04-22T14:29:29.679Z,4.47
2023-04-22T14:31:32.406Z,4.80
2023-04-22T14:33:36.620Z,4.55
2023-04-22T14:35:39.919Z,3.60
2023-04-22T14:37:44.912Z,5.53
2023-04-22T14:39:47.581Z,6.40
2023-04-22T14:41:50.536Z,5.03
2023-04-22T14:43:53.231Z,6.38
2023-04-22T14:45:55.944Z,4.90
2023-04-22T14:47:59.070Z,6.15
2023-04-22T14:50:03.150Z,7.00
2023-04-22T14:52:06.825Z,5.15
2023-04-22T14:54:09.498Z,4.38
2023-04-22T14:56:12.891Z,4.32
2023-04-22T14:58:15.595Z,4.43
2023-04-22T15:00:18.522Z,4.70
2023-04-22T15:02:21.346Z,5.13
2023-04-22T15:04:25.042Z,5.82
2023-04-22T15:06:29.005Z,4.10
2023-04-22T15:08:31.703Z,4.22
2023-04-22T15:10:34.475Z,4.38
2023-04-22T15:12:37.111Z,4.68
2023-04-22T15:14:40.278Z,4.80
2023-04-22T15:16:43.002Z,5.78
2023-04-22T15:18:45.654Z,5.00
2023-04-22T15:20:48.380Z,4.95
2023-04-22T15:22:52.376Z,5.30
2023-04-22T15:24:54.956Z,5.10
2023-04-22T15:26:58.028Z,4.53
2023-04-22T15:29:01.455Z,5.43
2023-04-22T15:31:04.275Z,5.22
2023-04-22T15:33:07.014Z,4.18
2023-04-22T15:35:09.968Z,3.90
2023-04-22T15:37:14.621Z,4.55
2023-04-22T15:39:18.927Z,5.18
2023-04-22T15:41:21.639Z,4.97
2023-04-22T15:43:24.302Z,5.13
2023-04-22T15:45:27.117Z,6.18
2023-04-22T15:47:30.089Z,5.05
2023-04-22T15:49:32.830Z,5.35
2023-04-22T15:51:35.775Z,5.68
2023-04-22T15:53:38.417Z,5.55
2023-04-22T15:55:42.473Z,6.35
2023-04-22T15:57:45.148Z,5.50
2023-04-22T15:59:51.455Z,3.55
2023-04-22T16:01:59.093Z,4.90
2023-04-22T16:04:02.186Z,5.68
2023-04-22T16:06:05.487Z,3.75
2023-04-22T16:08:08.222Z,5.32
2023-04-22T16:10:11.879Z,5.40
2023-04-22T16:12:16.258Z,5.85
2023-04-22T16:14:18.941Z,5.78
2023-04-22T16:16:23.004Z,5.30
2023-04-22T16:18:26.542Z,4.78
2023-04-22T16:20:29.229Z,5.25
2023-04-22T16:22:31.909Z,5.53
2023-04-22T16:24:34.538Z,4.80
2023-04-22T16:26:37.407Z,5.22
2023-04-22T16:28:41.428Z,5.68
2023-04-22T16:30:44.352Z,4.43
2023-04-22T16:32:47.060Z,5.47
2023-04-22T16:34:49.775Z,4.35
2023-04-22T16:36:52.426Z,4.68
2023-04-22T16:38:55.057Z,4.25
2023-04-22T16:40:58.164Z,6.13
2023-04-22T16:43:05.085Z,3.88
2023-04-22T16:45:09.822Z,5.80
2023-04-22T16:47:12.439Z,5.07
2023-04-22T16:49:15.046Z,4.93
2023-04-22T16:51:17.675Z,3.55
2023-04-22T16:53:20.315Z,5.05
2023-04-22T16:55:22.946Z,4.75
2023-04-22T16:57:25.550Z,5.68
2023-04-22T16:59:29.901Z,4.35
2023-04-22T17:01:34.288Z,7.35
2023-04-22T17:03:37.075Z,4.20
2023-04-22T17:05:40.183Z,4.38
2023-04-22T17:07:42.896Z,4.72
2023-04-22T17:09:45.565Z,3.35
2023-04-22T17:11:48.372Z,6.22
2023-04-22T17:13:51.209Z,4.50
2023-04-22T17:15:53.887Z,3.83
2023-04-22T17:17:58.009Z,5.90
2023-04-22T17:20:00.646Z,3.70
2023-04-22T17:22:03.869Z,3.90
2023-04-22T17:24:06.755Z,6.38
2023-04-22T17:26:09.853Z,6.05
2023-04-22T17:28:12.587Z,3.83
2023-04-22T17:30:15.728Z,3.78
2023-04-22T17:32:18.788Z,3.58
2023-04-22T17:34:23.023Z,4.15
2023-04-22T17:36:25.716Z,7.72
2023-04-22T17:38:28.344Z,6.13
2023-04-22T17:40:30.982Z,4.85
2023-04-22T17:42:44.720Z,5.03
2023-04-22T17:44:48.147Z,4.38
2023-04-22T17:46:50.852Z,5.68
2023-04-22T17:48:53.547Z,4.80
2023-04-22T17:50:57.529Z,5.40
2023-04-22T17:53:00.491Z,5.18
2023-04-22T17:55:03.296Z,18.60
2023-04-22T17:57:06.073Z,20.73
2023-04-22T17:59:11.241Z,10.23
2023-04-22T18:01:14.509Z,4.78
2023-04-22T18:03:20.068Z,4.95
2023-04-22T18:05:22.991Z,5.80
2023-04-22T18:07:27.038Z,3.85
2023-04-22T18:09:29.718Z,5.78
2023-04-22T18:11:32.449Z,5.70
2023-04-22T18:13:35.131Z,3.78
2023-04-22T18:15:37.837Z,4.85
2023-04-22T18:17:40.489Z,4.82
2023-04-22T18:19:44.607Z,4.80
2023-04-22T18:21:59.102Z,4.78
2023-04-22T18:24:04.359Z,5.65
2023-04-22T18:26:09.766Z,5.07
2023-04-22T18:28:12.409Z,4.35
2023-04-22T18:30:15.357Z,4.22
2023-04-22T18:32:18.478Z,4.43
2023-04-22T18:34:21.588Z,4.55
2023-04-22T18:36:24.251Z,5.32
2023-04-22T18:38:27.201Z,4.72
2023-04-22T18:40:31.281Z,4.45
2023-04-22T18:42:34.005Z,4.43
2023-04-22T18:44:37.155Z,4.15
2023-04-22T18:46:39.813Z,6.75
2023-04-22T18:48:43.282Z,4.50
2023-04-22T18:50:45.935Z,4.57
2023-04-22T18:52:48.807Z,4.75
2023-04-22T18:54:51.460Z,5.93
2023-04-22T18:56:55.737Z,5.05
2023-04-22T18:58:58.417Z,5.32
2023-04-22T19:01:01.721Z,5.63
2023-04-22T19:03:04.897Z,4.85
2023-04-22T19:05:08.121Z,4.70
2023-04-22T19:07:10.871Z,4.63
2023-04-22T19:09:13.518Z,3.63
2023-04-22T19:11:17.098Z,5.43
2023-04-22T19:13:29.329Z,5.85
2023-04-22T19:15:32.973Z,4.13
2023-04-22T19:17:35.880Z,5.25
2023-04-22T19:19:39.012Z,4.95
2023-04-22T19:21:42.054Z,5.80
2023-04-22T19:23:44.745Z,4.45
2023-04-22T19:25:48.010Z,4.47
2023-04-22T19:27:51.084Z,5.63
2023-04-22T19:29:55.142Z,5.18
2023-04-22T19:31:58.831Z,4.05
2023-04-22T19:34:02.658Z,4.25
2023-04-22T19:36:05.733Z,4.75
2023-04-22T19:38:08.600Z,4.68
2023-04-22T19:40:12.271Z,4.95
2023-04-22T19:42:15.060Z,5.97
2023-04-22T19:44:17.863Z,4.25
2023-04-22T19:46:21.985Z,4.75
2023-04-22T19:48:25.392Z,6.75
2023-04-22T19:50:28.501Z,5.03
2023-04-22T19:52:33.863Z,5.68
2023-04-22T19:54:37.670Z,5.40
2023-04-22T19:56:41.456Z,5.18
2023-04-22T19:58:44.704Z,4.68
2023-04-22T20:00:48.159Z,4.72
2023-04-22T20:02:54.402Z,6.57
2023-04-22T20:04:57.491Z,4.28
2023-04-22T20:07:02.843Z,5.18
2023-04-22T20:09:06.972Z,5.22
2023-04-22T20:11:10.098Z,6.95
2023-04-22T20:13:13.014Z,5.97
2023-04-22T20:15:16.244Z,5.07
2023-04-22T20:17:19.346Z,4.35
2023-04-22T20:19:24.018Z,4.25
2023-04-22T20:21:27.081Z,4.55
2023-04-22T20:23:29.861Z,5.15
2023-04-22T20:25:32.633Z,5.53
2023-04-22T20:27:36.942Z,4.93
2023-04-22T20:29:40.587Z,7.25
2023-04-22T20:31:43.780Z,6.15
2023-04-22T20:33:47.027Z,5.18
2023-04-22T20:35:51.438Z,5.70
2023-04-22T20:37:59.320Z,6.70
2023-04-22T20:40:04.788Z,6.57
2023-04-22T20:42:08.927Z,4.95
2023-04-22T20:44:11.714Z,5.93
2023-04-22T20:46:14.449Z,6.20
2023-04-22T20:48:17.482Z,6.93
2023-04-22T20:50:20.954Z,4.40
2023-04-22T20:52:25.072Z,5.63
2023-04-22T20:54:29.352Z,5.22
2023-04-22T20:58:49.038Z,6.13
2023-04-22T21:00:51.713Z,6.32
2023-04-22T21:02:55.329Z,7.50
2023-04-22T21:04:58.728Z,5.18
2023-04-22T21:07:04.667Z,5.22
2023-04-22T21:09:10.530Z,6.85
2023-04-22T21:11:13.803Z,7.18
2023-04-22T21:13:17.476Z,8.13
2023-04-22T21:15:20.980Z,5.80
2023-04-22T21:17:26.148Z,5.75
2023-04-22T21:19:33.467Z,6.35
2023-04-22T21:21:38.369Z,6.28
2023-04-22T21:23:42.110Z,6.00
2023-04-22T21:25:47.821Z,5.63
2023-04-22T21:27:51.042Z,6.40
2023-04-22T21:29:54.464Z,5.10
2023-04-22T21:32:08.239Z,5.78
2023-04-22T21:34:12.347Z,6.60
2023-04-22T21:36:15.258Z,7.95
2023-04-22T21:38:19.610Z,6.18
2023-04-22T21:40:22.501Z,6.13
2023-04-22T21:42:26.571Z,5.60
2023-04-22T21:44:29.267Z,5.90
2023-04-22T21:46:31.960Z,6.97
2023-04-22T21:48:34.713Z,6.60
2023-04-22T21:50:37.870Z,6.90
2023-04-22T21:52:40.637Z,7.93
2023-04-22T21:54:43.675Z,7.07
2023-04-22T21:56:46.588Z,6.38
2023-04-22T21:58:50.576Z,6.35
2023-04-22T22:00:53.358Z,5.93
2023-04-22T22:02:56.146Z,7.13
2023-04-22T22:04:58.843Z,6.32
2023-04-22T22:07:01.764Z,5.22
2023-04-22T22:09:04.556Z,7.88
2023-04-22T22:11:12.459Z,5.32
2023-04-22T22:13:20.058Z,6.13
2023-04-22T22:15:24.376Z,6.22
2023-04-22T22:17:27.732Z,5.72
2023-04-22T22:19:31.824Z,6.68
2023-04-22T22:21:34.563Z,5.60
2023-04-22T22:23:37.233Z,5.43
2023-04-22T22:25:39.948Z,5.13
2023-04-22T22:27:45.526Z,4.68
2023-04-22T22:29:48.208Z,4.50
2023-04-22T22:31:52.223Z,5.40
2023-04-22T22:33:54.902Z,5.35
2023-04-22T22:35:57.793Z,5.13
2023-04-22T22:38:00.756Z,3.97
2023-04-22T22:40:03.629Z,5.30
2023-04-22T22:42:06.422Z,5.25
2023-04-22T22:44:09.072Z,5.15
2023-04-22T22:46:11.787Z,5.65
2023-04-22T22:48:15.983Z,5.32
2023-04-22T22:50:18.860Z,5.75
2023-04-22T22:52:21.545Z,7.22
2023-04-22T22:54:24.198Z,5.35
2023-04-22T22:56:26.880Z,6.10
2023-04-22T22:58:29.574Z,5.75
2023-04-22T23:00:32.325Z,5.07
2023-04-22T23:02:35.264Z,5.28
2023-04-22T23:04:39.579Z,5.10
2023-04-22T23:06:42.391Z,4.07
2023-04-22T23:08:45.074Z,4.93
2023-04-22T23:10:47.727Z,5.10
2023-04-22T23:12:50.398Z,3.95
2023-04-22T23:14:53.032Z,7.10
2023-04-22T23:16:55.833Z,8.73
2023-04-22T23:18:58.644Z,5.75
2023-04-22T23:21:04.517Z,5.35
2023-04-22T23:23:08.031Z,4.82
2023-04-22T23:25:12.544Z,5.75
2023-04-22T23:27:16.568Z,7.25
2023-04-22T23:29:19.906Z,5.93
2023-04-22T23:31:24.232Z,6.00
2023-04-22T23:33:27.626Z,5.38
2023-04-22T23:35:30.835Z,4.93
2023-04-22T23:37:36.715Z,4.40
2023-04-22T23:39:40.510Z,7.45
2023-04-22T23:41:43.098Z,4.95
2023-04-22T23:43:45.779Z,6.07
2023-04-22T23:45:48.475Z,5.80
2023-04-22T23:47:51.290Z,5.65
2023-04-22T23:49:54.018Z,4.65
2023-04-22T23:51:56.779Z,4.30
2023-04-22T23:54:00.957Z,5.50
2023-04-22T23:56:04.129Z,6.57
2023-04-22T23:58:07.119Z,5.28
